Time;durP1;ratioP1;P1;durP2;ratioP2;P2;SDS_P1;SDS_P2;PMS_P1;PMS_P2;Temp;Humidity;BMP_temperature;BMP_pressure;BME280_temperature;BME280_humidity;BME280_pressure;Samples;Min_cycle;Max_cycle;Signal;HPM_P1;HPM_P2
2022/12/21 00:01:54;;;;;;;17.70;10.85;;;5.80;99.90;;;;;;5068280;28;20032;-72
2022/12/21 00:04:20;;;;;;;14.98;9.88;;;5.80;99.90;;;;;;5073504;28;20028;-72
2022/12/21 00:06:46;;;;;;;16.23;8.15;;;5.80;99.90;;;;;;5070786;28;20024;-71
2022/12/21 00:09:13;;;;;;;13.93;8.13;;;5.80;99.90;;;;;;5072659;28;20032;-72
2022/12/21 00:11:39;;;;;;;10.60;5.75;;;5.90;99.90;;;;;;5061393;28;20028;-71
2022/12/21 00:14:06;;;;;;;10.02;5.63;;;6.00;99.90;;;;;;5072723;28;20024;-72
2022/12/21 00:16:33;;;;;;;7.03;4.65;;;6.20;99.90;;;;;;5072701;28;20478;-70
2022/12/21 00:19:00;;;;;;;6.82;4.22;;;6.30;99.90;;;;;;5071935;28;20032;-74
2022/12/21 00:21:28;;;;;;;8.00;3.80;;;6.50;99.90;;;;;;5071725;28;20029;-72
2022/12/21 00:23:58;;;;;;;5.60;3.90;;;6.70;99.90;;;;;;5070666;28;20021;-72
2022/12/21 00:26:24;;;;;;;4.88;4.10;;;6.80;99.90;;;;;;5067156;28;20086;-71
2022/12/21 00:28:52;;;;;;;9.25;4.18;;;7.00;99.90;;;;;;5065150;28;20764;-72
2022/12/21 00:31:24;;;;;;;5.70;3.67;;;7.10;99.90;;;;;;5072847;28;20024;-74
2022/12/21 00:33:49;;;;;;;9.65;3.95;;;7.40;99.90;;;;;;5061754;28;20051;-72
2022/12/21 00:36:17;;;;;;;5.47;3.50;;;7.50;99.90;;;;;;5072697;28;20110;-72
2022/12/21 00:38:44;;;;;;;5.22;3.40;;;7.70;99.90;;;;;;5061276;28;20032;-71
2022/12/21 00:41:14;;;;;;;5.18;3.58;;;7.70;99.90;;;;;;5061907;28;20036;-72
2022/12/21 00:43:41;;;;;;;7.57;3.60;;;7.80;99.90;;;;;;5071539;28;20031;-73
2022/12/21 00:46:10;;;;;;;9.32;3.38;;;7.90;99.90;;;;;;5073051;28;20024;-72
2022/12/21 00:48:35;;;;;;;5.97;3.63;;;7.90;99.90;;;;;;5070895;28;20086;-69
2022/12/21 00:51:06;;;;;;;7.20;3.63;;;8.00;99.90;;;;;;5071762;28;20092;-72
2022/12/21 00:53:31;;;;;;;;;;;8.10;99.90;;;;;;5061869;28;20429;-72
2022/12/21 00:55:59;;;;;;;6.57;3.70;;;8.10;99.90;;;;;;5069935;28;19955;-73
2022/12/21 00:58:26;;;;;;;4.72;3.17;;;8.10;99.90;;;;;;5061616;28;20458;-72
2022/12/21 01:00:53;;;;;;;7.93;3.50;;;8.20;99.90;;;;;;5069874;28;20107;-72
2022/12/21 01:03:20;;;;;;;6.50;3.80;;;8.20;99.90;;;;;;5071209;28;20073;-72
2022/12/21 01:05:49;;;;;;;4.80;3.25;;;8.30;99.90;;;;;;5070993;28;20108;-73
2022/12/21 01:08:16;;;;;;;5.95;3.83;;;8.30;99.90;;;;;;5070489;28;20374;-73
2022/12/21 01:10:43;;;;;;;5.50;3.63;;;8.40;99.90;;;;;;5070675;28;20028;-73
2022/12/21 01:13:09;;;;;;;8.43;4.13;;;8.30;99.90;;;;;;5060750;28;20043;-73
2022/12/21 01:15:40;;;;;;;9.32;3.58;;;8.30;99.90;;;;;;5070537;28;20037;-71
2022/12/21 01:18:05;;;;;;;4.43;2.88;;;8.40;99.90;;;;;;5070850;28;20137;-72
2022/12/21 01:20:31;;;;;;;6.07;3.92;;;8.50;99.90;;;;;;5071458;28;20099;-72
2022/12/21 01:22:56;;;;;;;6.72;3.35;;;8.50;99.90;;;;;;5070148;28;20031;-73
2022/12/21 01:25:22;;;;;;;8.27;4.32;;;8.40;99.90;;;;;;5071170;28;20470;-72
2022/12/21 01:27:47;;;;;;;7.00;3.80;;;8.40;99.90;;;;;;5070057;28;20033;-72
2022/12/21 01:30:14;;;;;;;8.05;3.97;;;8.40;99.90;;;;;;5071141;28;20024;-73
2022/12/21 01:32:39;;;;;;;7.28;4.15;;;8.40;99.90;;;;;;5042627;28;20112;-70
2022/12/21 01:35:05;;;;;;;5.38;4.00;;;8.30;99.90;;;;;;5070446;28;20064;-73
2022/12/21 01:37:31;;;;;;;8.85;4.03;;;8.30;99.90;;;;;;5071050;28;20033;-72
2022/12/21 01:39:56;;;;;;;7.55;3.58;;;8.30;99.90;;;;;;5069615;28;20036;-72
2022/12/21 01:42:22;;;;;;;10.75;3.72;;;8.20;99.90;;;;;;5065124;28;20485;-73
2022/12/21 01:45:03;;;;;;;6.40;3.80;;;8.20;99.90;;;;;;5043145;28;20037;-72
2022/12/21 01:47:40;;;;;;;5.95;3.47;;;8.10;99.90;;;;;;5069695;28;20449;-72
2022/12/21 01:50:38;;;;;;;6.15;3.90;;;8.10;99.90;;;;;;5070924;28;20035;-72
2022/12/21 01:53:19;;;;;;;6.70;3.50;;;8.10;99.90;;;;;;5070739;28;20476;-72
2022/12/21 01:55:48;;;;;;;5.88;3.70;;;8.10;99.90;;;;;;5069656;28;20036;-72
2022/12/21 01:58:15;;;;;;;6.03;3.58;;;8.10;99.90;;;;;;5070706;28;20115;-73
2022/12/21 02:00:41;;;;;;;7.90;3.55;;;8.10;99.90;;;;;;5070177;28;20466;-73
2022/12/21 02:03:10;;;;;;;8.82;3.90;;;8.10;99.90;;;;;;5060718;28;20032;-73
2022/12/21 02:05:53;;;;;;;5.95;3.35;;;8.10;99.90;;;;;;5069906;28;20107;-72
2022/12/21 02:08:20;;;;;;;6.93;3.30;;;8.10;99.90;;;;;;5070193;28;20037;-73
2022/12/21 02:10:46;;;;;;;8.48;4.25;;;8.00;99.90;;;;;;5068883;28;20574;-73
2022/12/21 02:13:14;;;;;;;6.60;3.35;;;8.00;99.90;;;;;;5069715;28;20063;-72
2022/12/21 02:15:58;;;;;;;5.38;3.28;;;8.00;99.90;;;;;;5060622;28;20036;-72
2022/12/21 02:18:58;;;;;;;10.05;3.28;;;8.10;99.90;;;;;;5067257;28;20063;-72
2022/12/21 02:21:23;;;;;;;;;;;8.10;99.90;;;;;;5061128;28;20381;-70
2022/12/21 02:24:29;;;;;;;6.93;3.17;;;8.20;99.90;;;;;;5059433;28;19923;-72
2022/12/21 02:26:57;;;;;;;7.05;3.28;;;8.20;99.90;;;;;;5069345;28;20616;-72
2022/12/21 02:29:50;;;;;;;6.32;3.03;;;8.30;99.90;;;;;;5070083;28;20143;-74
2022/12/21 02:32:27;;;;;;;7.50;3.28;;;8.30;99.90;;;;;;5059517;28;20079;-73
2022/12/21 02:35:18;;;;;;;7.40;3.05;;;8.30;99.90;;;;;;5070569;28;20032;-72
2022/12/21 02:37:55;;;;;;;7.72;2.90;;;8.40;99.90;;;;;;5069857;28;20094;-72
2022/12/21 02:40:43;;;;;;;8.48;2.65;;;8.40;99.90;;;;;;5070492;28;20035;-73
2022/12/21 02:44:28;;;;;;;7.03;2.70;;;8.50;99.90;;;;;;5071442;28;20389;-72
2022/12/21 02:46:57;;;;;;;4.03;2.25;;;8.50;99.90;;;;;;5046691;28;20044;-71
2022/12/21 02:49:26;;;;;;;5.07;2.40;;;8.50;99.90;;;;;;5074391;28;20181;-72
2022/12/21 02:51:56;;;;;;;3.85;2.60;;;8.60;99.90;;;;;;5073124;28;20110;-72
2022/12/21 02:54:22;;;;;;;;;;;8.60;99.90;;;;;;5074623;28;20035;-72
2022/12/21 02:56:47;;;;;;;5.40;2.60;;;8.60;99.90;;;;;;5054596;28;19909;-72
2022/12/21 02:59:15;;;;;;;5.90;2.58;;;8.60;99.90;;;;;;5074274;28;20424;-72
2022/12/21 03:01:47;;;;;;;3.88;2.53;;;8.60;99.90;;;;;;5073299;28;20462;-72
2022/12/21 03:04:15;;;;;;;3.30;2.30;;;8.70;99.90;;;;;;5065152;28;20028;-71
2022/12/21 03:07:02;;;;;;;5.78;2.80;;;8.60;99.90;;;;;;5073365;28;20099;-72
2022/12/21 03:09:39;;;;;;;5.30;2.53;;;8.60;99.90;;;;;;5073521;28;20042;-73
2022/12/21 03:12:29;;;;;;;4.93;2.65;;;8.70;99.90;;;;;;5065158;28;20111;-72
2022/12/21 03:15:18;;;;;;;6.72;2.58;;;8.70;99.90;;;;;;5061241;28;20056;-72
2022/12/21 03:17:45;;;;;;;5.82;2.85;;;8.60;99.90;;;;;;5072969;28;20040;-73
2022/12/21 03:20:29;;;;;;;8.20;2.75;;;8.60;99.90;;;;;;5055036;28;20033;-73
2022/12/21 03:23:13;;;;;;;6.32;2.75;;;8.60;99.90;;;;;;5072462;28;20094;-73
2022/12/21 03:25:51;;;;;;;7.97;3.13;;;8.60;99.90;;;;;;5073047;28;20043;-72
2022/12/21 03:28:24;;;;;;;5.82;2.47;;;8.60;99.90;;;;;;5073289;28;20045;-73
2022/12/21 03:30:54;;;;;;;3.05;2.30;;;8.50;99.90;;;;;;5072880;28;20104;-72
2022/12/21 03:33:22;;;;;;;;;;;8.60;99.90;;;;;;5073938;28;20093;-72
2022/12/21 03:36:17;;;;;;;4.28;2.30;;;8.60;99.90;;;;;;5064364;28;20436;-72
2022/12/21 03:38:50;;;;;;;7.07;2.40;;;8.50;99.90;;;;;;5060355;28;20090;-72
2022/12/21 03:41:23;;;;;;;3.28;2.20;;;8.50;99.90;;;;;;5073895;28;20436;-72
2022/12/21 03:43:52;;;;;;;3.50;2.38;;;8.50;99.90;;;;;;5072430;28;20111;-72
2022/12/21 03:46:24;;;;;;;5.72;2.47;;;8.40;99.90;;;;;;5073131;28;20048;-72
2022/12/21 03:48:56;;;;;;;5.90;2.40;;;8.50;99.90;;;;;;5072546;28;20028;-73
2022/12/21 03:51:45;;;;;;;5.63;2.30;;;8.50;99.90;;;;;;5073646;28;20028;-72
2022/12/21 03:54:39;;;;;;;7.28;2.72;;;8.40;99.90;;;;;;5062993;28;20052;-73
2022/12/21 03:57:06;;;;;;;5.45;2.35;;;8.40;99.90;;;;;;5072781;28;20029;-73
2022/12/21 03:59:32;;;;;;;5.47;2.60;;;8.40;99.90;;;;;;5059656;28;20037;-71
2022/12/21 04:02:08;;;;;;;5.13;2.10;;;8.40;99.90;;;;;;5072299;28;20031;-73
2022/12/21 04:04:47;;;;;;;3.97;2.47;;;8.40;99.90;;;;;;5072373;28;20031;-71
2022/12/21 04:07:15;;;;;;;6.35;2.35;;;8.30;99.90;;;;;;5072359;28;20029;-72
2022/12/21 04:09:41;;;;;;;8.80;2.70;;;8.30;99.90;;;;;;5072734;28;20094;-72
2022/12/21 04:14:51;;;;;;;6.00;2.60;;;8.40;99.90;;;;;;5060769;28;20038;-72
2022/12/21 04:17:17;;;;;;;6.10;2.22;;;8.40;99.90;;;;;;5077240;28;20036;-73
2022/12/21 04:19:58;;;;;;;5.10;2.50;;;8.40;99.90;;;;;;5073299;28;20035;-73
2022/12/21 04:28:09;;;;;;;6.88;2.47;;;8.50;99.90;;;;;;5060633;28;20047;-75
2022/12/21 04:30:40;;;;;;;5.43;2.58;;;8.50;99.90;;;;;;5057474;28;20041;-71
2022/12/21 04:33:07;;;;;;;5.68;2.20;;;8.50;99.90;;;;;;5058988;28;20094;-72
2022/12/21 04:35:34;;;;;;;5.03;2.45;;;8.60;99.90;;;;;;5072271;28;20054;-72
2022/12/21 04:38:00;;;;;;;5.00;2.50;;;8.60;99.90;;;;;;5071664;28;20031;-73
2022/12/21 04:40:25;;;;;;;7.85;2.78;;;8.60;99.90;;;;;;5072834;28;20385;-73
2022/12/21 04:42:51;;;;;;;7.15;2.17;;;8.60;99.90;;;;;;5052778;28;20465;-72
2022/12/21 04:45:17;;;;;;;3.15;2.15;;;8.60;99.90;;;;;;5072630;28;20036;-72
2022/12/21 04:47:42;;;;;;;4.65;2.30;;;8.60;99.90;;;;;;5062908;28;20036;-71
2022/12/21 04:50:09;;;;;;;6.13;2.35;;;8.60;99.90;;;;;;5046154;28;20033;-71
2022/12/21 04:52:35;;;;;;;4.28;2.55;;;8.60;99.90;;;;;;5047603;28;20033;-71
2022/12/21 04:55:02;;;;;;;7.00;2.40;;;8.60;99.90;;;;;;5071898;28;20500;-73
2022/12/21 04:57:28;;;;;;;7.38;2.38;;;8.60;99.90;;;;;;5071640;28;20029;-73
2022/12/21 04:59:54;;;;;;;4.00;2.20;;;8.60;99.90;;;;;;5070637;28;20089;-73
2022/12/21 05:02:19;;;;;;;5.32;2.38;;;8.70;99.90;;;;;;5071225;28;20027;-73
2022/12/21 05:04:45;;;;;;;5.35;2.05;;;8.70;99.90;;;;;;5070948;28;20041;-73
2022/12/21 05:07:10;;;;;;;4.20;2.22;;;8.70;99.90;;;;;;5053352;28;20119;-73
2022/12/21 05:09:36;;;;;;;3.65;2.05;;;8.70;99.90;;;;;;5065422;28;20031;-71
2022/12/21 05:12:02;;;;;;;4.60;2.25;;;8.80;99.90;;;;;;5068197;28;20024;-72
2022/12/21 05:14:27;;;;;;;4.00;2.33;;;8.80;99.90;;;;;;5072546;28;20369;-73
2022/12/21 05:16:53;;;;;;;7.43;2.28;;;8.80;99.90;;;;;;5070061;28;20028;-72
2022/12/21 05:19:19;;;;;;;6.00;2.65;;;8.80;99.90;;;;;;5071958;28;20234;-73
2022/12/21 05:21:45;;;;;;;4.75;2.10;;;8.80;99.90;;;;;;5070272;28;20028;-72
2022/12/21 05:24:11;;;;;;;3.65;1.95;;;8.80;99.90;;;;;;5071881;28;20028;-73
2022/12/21 05:26:37;;;;;;;4.85;2.58;;;8.80;99.90;;;;;;5060748;28;20401;-71
2022/12/21 05:29:03;;;;;;;3.38;2.13;;;8.80;99.90;;;;;;5071136;28;20132;-73
2022/12/21 05:31:29;;;;;;;7.07;2.15;;;8.70;99.90;;;;;;5071625;28;20091;-73
2022/12/21 05:33:55;;;;;;;4.25;2.10;;;8.70;99.90;;;;;;5070231;28;20667;-74
2022/12/21 05:36:21;;;;;;;3.78;2.15;;;8.80;99.90;;;;;;5070883;28;20067;-72
2022/12/21 05:38:47;;;;;;;5.82;2.30;;;8.80;99.90;;;;;;5069690;28;20063;-72
2022/12/21 05:41:15;;;;;;;5.45;2.05;;;8.80;99.90;;;;;;5071561;28;20025;-73
2022/12/21 05:43:41;;;;;;;4.97;2.25;;;8.80;99.90;;;;;;5060258;28;20025;-72
2022/12/21 05:46:10;;;;;;;6.45;2.25;;;8.80;99.90;;;;;;5071358;28;20454;-73
2022/12/21 05:48:36;;;;;;;3.22;1.95;;;8.80;99.90;;;;;;5069992;28;20098;-71
2022/12/21 05:51:19;;;;;;;4.82;1.98;;;8.80;99.90;;;;;;5071666;28;20032;-74
2022/12/21 05:53:45;;;;;;;4.03;1.90;;;8.80;99.90;;;;;;5068928;28;20028;-73
2022/12/21 05:56:11;;;;;;;4.93;2.63;;;8.80;99.90;;;;;;5071346;28;20035;-74
2022/12/21 05:58:37;;;;;;;5.72;2.30;;;8.70;99.90;;;;;;5064665;28;20105;-71
2022/12/21 06:01:05;;;;;;;5.00;2.08;;;8.70;99.90;;;;;;5062814;28;20040;-72
2022/12/21 06:03:30;;;;;;;5.75;2.45;;;8.70;99.90;;;;;;5069153;28;20043;-73
2022/12/21 06:06:08;;;;;;;5.05;2.28;;;8.80;99.90;;;;;;5069439;28;20032;-72
2022/12/21 06:08:34;;;;;;;4.00;2.08;;;8.80;99.90;;;;;;5069255;28;20028;-71
2022/12/21 06:11:04;;;;;;;7.00;2.42;;;8.70;99.90;;;;;;5069091;28;20036;-73
2022/12/21 06:13:30;;;;;;;2.97;2.03;;;8.70;99.90;;;;;;5070509;28;20498;-72
2022/12/21 06:16:04;;;;;;;5.25;2.47;;;8.70;99.90;;;;;;5060518;28;20040;-72
2022/12/21 06:18:29;;;;;;;6.63;2.35;;;8.70;99.90;;;;;;5072274;28;20040;-72
2022/12/21 06:20:55;;;;;;;4.93;2.53;;;8.70;99.90;;;;;;5074513;28;20099;-74
2022/12/21 06:23:21;;;;;;;5.72;2.22;;;8.70;99.90;;;;;;5074273;28;20028;-72
2022/12/21 06:25:46;;;;;;;8.15;2.78;;;8.60;99.90;;;;;;5066639;28;20373;-72
2022/12/21 06:28:12;;;;;;;5.20;1.92;;;8.70;99.90;;;;;;5073866;28;20052;-72
2022/12/21 06:30:37;;;;;;;7.18;2.05;;;8.60;99.90;;;;;;5067228;28;22122;-71
2022/12/21 06:33:03;;;;;;;5.63;2.28;;;8.60;99.90;;;;;;5050766;28;20040;-73
2022/12/21 06:35:29;;;;;;;5.22;2.40;;;8.60;99.90;;;;;;5045400;28;20488;-72
2022/12/21 06:37:56;;;;;;;10.38;2.53;;;8.60;99.90;;;;;;5043816;28;20055;-73
2022/12/21 06:40:22;;;;;;;3.42;2.40;;;8.60;99.90;;;;;;5063367;28;20618;-69
2022/12/21 06:42:47;;;;;;;5.85;2.38;;;8.60;99.90;;;;;;5068346;28;20020;-72
2022/12/21 06:45:13;;;;;;;5.63;2.67;;;8.60;99.90;;;;;;5069797;28;20397;-73
2022/12/21 06:47:39;;;;;;;3.45;2.40;;;8.70;99.90;;;;;;5069493;28;20028;-70
2022/12/21 06:50:05;;;;;;;7.20;2.25;;;8.70;99.90;;;;;;5076854;28;20497;-72
2022/12/21 06:52:34;;;;;;;6.20;2.38;;;8.80;99.90;;;;;;5073574;28;20107;-71
2022/12/21 06:55:00;;;;;;;4.93;2.13;;;8.80;99.90;;;;;;5070849;28;20093;-71
2022/12/21 06:57:26;;;;;;;10.45;2.40;;;8.80;99.90;;;;;;5051231;28;20048;-70
2022/12/21 06:59:52;;;;;;;9.98;2.30;;;8.80;99.90;;;;;;5076737;28;20037;-71
2022/12/21 07:02:17;;;;;;;4.18;2.20;;;8.90;99.90;;;;;;5077356;28;20488;-72
2022/12/21 07:04:43;;;;;;;9.38;2.10;;;8.90;99.90;;;;;;5070520;28;20028;-71
2022/12/21 07:07:08;;;;;;;7.68;1.83;;;8.90;99.90;;;;;;5073190;28;20373;-70
2022/12/21 07:09:34;;;;;;;4.43;2.30;;;9.00;99.90;;;;;;5069680;28;20024;-69
2022/12/21 07:11:59;;;;;;;4.90;2.20;;;9.00;99.90;;;;;;5075638;28;20036;-71
2022/12/21 07:14:25;;;;;;;3.15;1.75;;;9.00;99.90;;;;;;5064486;28;20031;-73
2022/12/21 07:16:51;;;;;;;4.15;1.98;;;9.10;99.90;;;;;;5076244;28;20038;-71
2022/12/21 07:19:17;;;;;;;6.35;2.33;;;9.10;99.90;;;;;;5069880;28;20202;-72
2022/12/21 07:21:43;;;;;;;4.78;2.42;;;9.10;99.90;;;;;;5072186;28;20032;-72
2022/12/21 07:24:09;;;;;;;5.20;2.15;;;9.10;99.90;;;;;;5069949;28;20029;-71
2022/12/21 07:26:34;;;;;;;6.32;1.90;;;9.10;99.90;;;;;;5073579;28;20100;-68
2022/12/21 07:29:00;;;;;;;3.25;2.10;;;9.10;99.90;;;;;;5072697;28;20414;-69
2022/12/21 07:31:27;;;;;;;7.38;2.00;;;9.10;99.90;;;;;;5056787;28;20032;-70
2022/12/21 07:33:53;;;;;;;5.47;1.95;;;9.10;99.90;;;;;;5050573;28;20113;-67
2022/12/21 07:36:19;;;;;;;6.68;2.05;;;9.00;99.90;;;;;;5072887;28;20491;-68
2022/12/21 07:38:45;;;;;;;6.53;2.10;;;9.00;99.90;;;;;;5072520;28;20032;-69
2022/12/21 07:41:13;;;;;;;7.13;1.73;;;9.10;99.90;;;;;;5073242;28;20025;-70
2022/12/21 07:43:39;;;;;;;4.03;1.88;;;9.10;99.90;;;;;;5065812;28;20454;-69
2022/12/21 07:46:06;;;;;;;5.18;1.60;;;9.10;99.90;;;;;;5062251;28;20036;-69
2022/12/21 07:48:32;;;;;;;2.92;1.90;;;9.10;99.90;;;;;;5071139;28;20029;-69
2022/12/21 07:50:58;;;;;;;2.40;1.58;;;9.10;99.90;;;;;;5068084;28;20109;-69
2022/12/21 07:53:24;;;;;;;4.68;2.15;;;9.10;99.90;;;;;;5072767;28;20101;-69
2022/12/21 07:55:50;;;;;;;3.55;2.30;;;9.10;99.90;;;;;;5071839;28;20388;-70
2022/12/21 07:58:15;;;;;;;5.13;1.58;;;9.10;99.90;;;;;;5072201;28;20111;-69
2022/12/21 08:00:41;;;;;;;4.22;1.95;;;9.20;99.90;;;;;;5071629;28;20056;-69
2022/12/21 08:03:08;;;;;;;3.83;2.10;;;9.10;99.90;;;;;;5071029;28;20020;-69
2022/12/21 08:05:34;;;;;;;3.65;1.92;;;9.20;99.90;;;;;;5072582;28;20047;-69
2022/12/21 08:08:02;;;;;;;2.88;1.63;;;9.20;99.90;;;;;;5070179;28;20107;-70
2022/12/21 08:10:28;;;;;;;3.50;1.83;;;9.10;99.90;;;;;;5069418;28;20032;-69
2022/12/21 08:12:53;;;;;;;4.35;1.90;;;9.10;99.90;;;;;;5070906;28;20206;-70
2022/12/21 08:15:21;;;;;;;4.65;1.85;;;9.20;99.90;;;;;;5078380;28;20457;-69
2022/12/21 08:17:47;;;;;;;6.10;1.70;;;9.20;99.90;;;;;;5079573;28;20032;-70
2022/12/21 08:20:13;;;;;;;4.07;1.92;;;9.20;99.90;;;;;;5071465;28;20028;-69
2022/12/21 08:22:40;;;;;;;6.10;2.10;;;9.20;99.90;;;;;;5070788;28;20480;-70
2022/12/21 08:25:06;;;;;;;3.45;1.88;;;9.20;99.90;;;;;;5072623;28;20461;-70
2022/12/21 08:27:32;;;;;;;2.80;1.85;;;9.10;99.90;;;;;;5071714;28;20075;-69
2022/12/21 08:29:57;;;;;;;3.50;1.50;;;9.10;99.90;;;;;;5070683;28;20075;-70
2022/12/21 08:32:23;;;;;;;4.88;2.17;;;9.10;99.90;;;;;;5071789;28;20465;-69
2022/12/21 08:34:48;;;;;;;6.93;2.00;;;9.10;99.90;;;;;;5072139;28;20025;-69
2022/12/21 08:37:14;;;;;;;4.22;2.15;;;9.10;99.90;;;;;;5073513;28;20032;-70
2022/12/21 08:39:40;;;;;;;5.15;2.03;;;9.10;99.90;;;;;;5067538;28;20454;-69
2022/12/21 08:42:05;;;;;;;8.60;2.78;;;9.10;99.90;;;;;;5067132;28;20051;-71
2022/12/21 08:44:32;;;;;;;3.08;1.88;;;9.10;99.90;;;;;;5071563;28;20032;-70
2022/12/21 08:46:57;;;;;;;6.45;2.13;;;9.10;99.90;;;;;;5070779;28;20012;-70
2022/12/21 08:49:23;;;;;;;6.78;2.15;;;9.00;99.90;;;;;;5072363;28;20418;-70
2022/12/21 08:51:49;;;;;;;5.40;2.05;;;9.00;99.90;;;;;;5070229;28;20023;-70
2022/12/21 08:54:14;;;;;;;7.45;1.90;;;9.00;99.90;;;;;;5071991;28;20104;-70
2022/12/21 08:56:40;;;;;;;4.70;2.00;;;9.00;99.90;;;;;;5069996;28;20028;-70
2022/12/21 08:59:08;;;;;;;4.10;1.77;;;9.00;99.90;;;;;;5070621;28;20027;-70
2022/12/21 09:01:34;;;;;;;5.45;2.13;;;9.00;99.90;;;;;;5066033;28;20515;-70
2022/12/21 09:04:00;;;;;;;5.47;2.10;;;9.10;99.90;;;;;;5066874;28;20025;-69
2022/12/21 09:06:26;;;;;;;5.53;2.30;;;9.10;99.90;;;;;;5071453;28;20036;-70
2022/12/21 09:08:51;;;;;;;7.35;2.47;;;9.20;99.90;;;;;;5070337;28;20020;-70
2022/12/21 09:11:19;;;;;;;2.58;1.63;;;9.10;99.90;;;;;;5071401;28;20032;-70
2022/12/21 09:13:46;;;;;;;4.47;1.85;;;9.20;99.90;;;;;;5070006;28;20512;-68
2022/12/21 09:16:17;;;;;;;4.13;2.13;;;9.20;99.90;;;;;;5071606;28;20027;-70
2022/12/21 09:18:43;;;;;;;3.35;1.77;;;9.30;99.90;;;;;;5059572;28;20048;-70
2022/12/21 09:21:10;;;;;;;4.60;1.60;;;9.20;99.90;;;;;;5073341;28;20090;-69
2022/12/21 09:23:37;;;;;;;4.20;1.85;;;9.20;99.90;;;;;;5067211;28;20039;-70
2022/12/21 09:26:05;;;;;;;3.05;2.10;;;9.20;99.90;;;;;;5072182;28;20393;-70
2022/12/21 09:28:31;;;;;;;3.95;1.90;;;9.30;99.90;;;;;;5064606;28;20040;-68
2022/12/21 09:31:06;;;;;;;8.90;1.95;;;9.20;99.90;;;;;;5075356;28;20020;-69
2022/12/21 09:33:32;;;;;;;6.18;1.92;;;9.20;99.90;;;;;;5071797;28;20028;-74
2022/12/21 09:35:57;;;;;;;3.50;1.98;;;9.10;99.90;;;;;;5071757;28;20025;-70
2022/12/21 09:38:23;;;;;;;3.50;1.92;;;9.10;99.90;;;;;;5065301;28;20485;-70
2022/12/21 09:40:50;;;;;;;4.00;1.83;;;9.20;99.90;;;;;;5064782;28;20029;-68
2022/12/21 09:43:44;;;;;;;3.20;1.83;;;9.10;99.90;;;;;;5067513;28;20389;-70
2022/12/21 09:46:13;;;;;;;7.43;2.30;;;9.10;99.90;;;;;;5069687;28;20036;-70
2022/12/21 09:48:45;;;;;;;4.88;2.15;;;9.10;99.90;;;;;;5067032;28;20032;-70
2022/12/21 09:51:31;;;;;;;4.47;2.10;;;9.10;99.90;;;;;;5067048;28;20497;-69
2022/12/21 09:54:26;;;;;;;4.30;2.20;;;9.20;99.90;;;;;;5065824;28;20386;-67
2022/12/21 09:56:54;;;;;;;4.28;2.40;;;9.20;99.90;;;;;;5065460;28;20111;-72
2022/12/21 09:59:21;;;;;;;3.65;2.05;;;9.20;99.90;;;;;;5064859;28;20032;-71
2022/12/21 10:02:14;;;;;;;3.88;2.22;;;9.20;99.90;;;;;;5084907;28;20028;-71
2022/12/21 10:05:17;;;;;;;5.72;2.38;;;9.30;99.90;;;;;;5067031;28;20474;-71
2022/12/21 10:08:04;;;;;;;2.97;2.03;;;9.30;99.90;;;;;;5059525;28;20036;-71
2022/12/21 10:10:59;;;;;;;7.65;1.90;;;9.30;99.90;;;;;;5073821;28;20028;-71
2022/12/21 10:13:35;;;;;;;3.50;2.00;;;9.50;99.90;;;;;;5057111;28;20024;-69
2022/12/21 10:16:25;;;;;;;5.22;2.10;;;9.60;99.90;;;;;;5075014;28;20056;-70
2022/12/21 10:19:09;;;;;;;4.13;2.22;;;9.60;99.90;;;;;;5065722;28;20040;-72
2022/12/21 10:21:47;;;;;;;5.47;1.80;;;9.80;99.90;;;;;;5077256;28;20041;-71
2022/12/21 10:24:44;;;;;;;4.68;2.28;;;9.90;99.90;;;;;;5065683;28;20032;-70
2022/12/21 10:27:29;;;;;;;4.10;1.85;;;9.90;99.90;;;;;;5066496;28;20427;-69
2022/12/21 10:29:57;;;;;;;2.75;1.83;;;9.90;99.90;;;;;;5066735;28;20052;-70
2022/12/21 10:32:28;;;;;;;3.42;1.60;;;10.00;99.90;;;;;;5070897;28;20028;-70
2022/12/21 10:34:54;;;;;;;3.58;1.75;;;10.00;99.90;;;;;;5064901;28;20115;-70
2022/12/21 10:37:21;;;;;;;3.88;1.80;;;10.10;99.90;;;;;;5069152;28;20075;-70
2022/12/21 10:39:53;;;;;;;4.97;2.08;;;;;;;;;;5068779;28;20028;-71
2022/12/21 10:42:32;;;;;;;3.35;1.85;;;10.20;99.90;;;;;;5072723;28;20524;-70
2022/12/21 10:44:58;;;;;;;3.65;2.05;;;10.30;99.90;;;;;;5067817;28;20028;-70
2022/12/21 10:47:24;;;;;;;6.22;2.53;;;10.40;99.90;;;;;;5071332;28;20047;-70
2022/12/21 10:50:18;;;;;;;5.13;2.38;;;10.40;99.90;;;;;;5069501;28;20028;-68
2022/12/21 10:52:48;;;;;;;4.70;1.80;;;10.40;99.90;;;;;;5066447;28;20032;-69
2022/12/21 10:55:20;;;;;;;3.92;1.92;;;10.40;99.90;;;;;;5069826;28;20025;-71
2022/12/21 10:58:12;;;;;;;3.47;2.30;;;10.40;99.90;;;;;;5070225;28;20119;-68
2022/12/21 11:00:40;;;;;;;3.80;1.92;;;10.40;99.90;;;;;;5008459;28;20052;-79
2022/12/21 11:03:30;;;;;;;4.80;1.90;;;10.40;99.90;;;;;;4999836;28;20112;-78
2022/12/21 11:05:56;;;;;;;;;;;10.40;99.90;;;;;;5010990;28;20213;-79
2022/12/21 11:08:31;;;;;;;2.78;2.00;;;10.40;99.90;;;;;;5009585;28;20374;-84
2022/12/21 11:11:01;;;;;;;3.95;2.00;;;10.30;99.90;;;;;;5010358;28;20050;-81
2022/12/21 11:13:30;;;;;;;6.18;2.40;;;10.30;99.90;;;;;;5000006;28;20033;-78
2022/12/21 11:16:12;;;;;;;4.97;2.25;;;10.30;99.90;;;;;;5010541;28;20033;-77
2022/12/21 11:18:42;;;;;;;4.45;2.30;;;10.40;99.90;;;;;;5005644;28;20643;-76
2022/12/21 11:21:20;;;;;;;4.38;2.10;;;10.40;99.90;;;;;;5016837;28;20049;-77
2022/12/21 11:23:57;;;;;;;4.05;1.98;;;10.40;99.90;;;;;;5006692;28;20172;-81
2022/12/21 11:26:30;;;;;;;3.03;2.05;;;10.40;99.90;;;;;;5012476;28;20502;-79
2022/12/21 11:29:02;;;;;;;4.97;2.20;;;10.40;99.90;;;;;;5005011;28;20602;-79
2022/12/21 11:31:30;;;;;;;3.08;2.30;;;10.40;99.90;;;;;;5010374;28;20030;-80
2022/12/21 11:33:55;;;;;;;5.72;1.85;;;10.50;99.90;;;;;;5005939;28;20030;-74
2022/12/21 11:36:21;;;;;;;2.95;1.88;;;10.70;99.90;;;;;;5010419;28;20390;-74
2022/12/21 11:38:47;;;;;;;4.43;2.33;;;10.70;99.90;;;;;;5027653;28;20073;-74
2022/12/21 11:41:29;;;;;;;5.10;2.60;;;10.70;99.90;;;;;;5030633;28;20416;-75
2022/12/21 11:43:55;;;;;;;5.78;2.08;;;10.80;99.90;;;;;;5031135;28;20602;-75
2022/12/21 11:46:48;;;;;;;3.70;2.15;;;10.80;99.90;;;;;;5031727;28;20471;-76
2022/12/21 11:49:46;;;;;;;4.28;2.20;;;11.00;99.90;;;;;;5020858;28;20034;-74
2022/12/21 11:52:39;;;;;;;5.20;2.10;;;11.00;99.90;;;;;;5036760;28;20025;-75
2022/12/21 11:55:12;;;;;;;4.43;1.90;;;;;;;;;;5029401;28;20030;-75
2022/12/21 11:57:47;;;;;;;1.85;1.67;;;;;;;;;;5032739;28;20045;-77
2022/12/21 12:00:21;;;;;;;9.73;2.10;;;11.40;99.90;;;;;;5039192;28;20049;-78
2022/12/21 12:02:56;;;;;;;5.65;2.15;;;11.50;99.90;;;;;;5034753;28;20026;-75
2022/12/21 12:05:27;;;;;;;4.47;2.20;;;11.60;99.90;;;;;;5012780;28;21171;-76
2022/12/21 12:07:59;;;;;;;2.17;1.60;;;11.70;99.90;;;;;;5024180;28;20451;-77
2022/12/21 12:10:28;;;;;;;4.30;1.95;;;11.60;99.90;;;;;;5035853;28;20371;-77
2022/12/21 12:13:50;;;;;;;2.58;1.73;;;11.60;99.90;;;;;;5032670;28;20030;-77
2022/12/21 12:16:32;;;;;;;8.73;2.00;;;11.60;99.90;;;;;;4963672;28;20038;-77
2022/12/21 12:19:31;;;;;;;3.95;2.05;;;11.60;99.90;;;;;;4963803;28;20803;-77
2022/12/21 12:22:28;;;;;;;4.87;2.00;;;11.60;99.90;;;;;;4960160;28;20046;-78
2022/12/21 12:25:22;;;;;;;2.28;1.63;;;11.60;99.90;;;;;;4955802;28;20027;-77
2022/12/21 12:28:08;;;;;;;3.28;1.92;;;11.70;99.90;;;;;;4956591;28;20042;-77
2022/12/21 12:30:56;;;;;;;3.63;2.13;;;11.80;99.90;;;;;;4961289;28;20031;-73
2022/12/21 12:33:43;;;;;;;3.67;1.60;;;11.90;99.90;;;;;;4959403;28;20090;-77
2022/12/21 12:36:29;;;;;;;3.83;1.60;;;12.10;99.90;;;;;;4960519;28;20035;-77
2022/12/21 12:39:12;;;;;;;3.17;1.48;;;12.20;99.90;;;;;;4959953;28;20087;-78
2022/12/21 12:42:03;;;;;;;3.63;1.85;;;12.20;99.90;;;;;;4951624;28;20043;-73
2022/12/21 12:45:01;;;;;;;2.75;1.85;;;12.30;99.90;;;;;;4956324;28;20081;-78
2022/12/21 12:47:39;;;;;;;3.53;1.65;;;12.20;99.90;;;;;;5019377;28;20087;-77
2022/12/21 12:50:10;;;;;;;3.38;1.60;;;12.10;99.90;;;;;;5052430;28;20108;-77
2022/12/21 12:52:39;;;;;;;3.63;1.60;;;12.00;99.90;;;;;;5052093;28;20100;-75
2022/12/21 12:55:21;;;;;;;2.58;1.40;;;12.10;99.90;;;;;;5055968;28;20033;-78
2022/12/21 12:58:13;;;;;;;2.30;1.20;;;12.10;99.90;;;;;;5050517;28;20033;-77
2022/12/21 13:00:51;;;;;;;2.22;1.30;;;12.10;99.90;;;;;;5048030;28;20029;-76
2022/12/21 13:03:34;;;;;;;1.92;1.38;;;12.00;99.90;;;;;;5051135;28;20029;-76
2022/12/21 13:06:34;;;;;;;4.07;2.10;;;12.00;99.90;;;;;;5051282;28;20033;-76
2022/12/21 13:09:05;;;;;;;2.93;1.60;;;12.00;99.90;;;;;;5049068;28;20087;-77
2022/12/21 13:12:12;;;;;;;4.68;1.90;;;12.00;99.90;;;;;;5034809;28;20029;-77
2022/12/21 13:14:50;;;;;;;2.25;1.73;;;12.00;99.90;;;;;;4991903;28;20485;-73
2022/12/21 13:17:36;;;;;;;2.08;1.27;;;12.00;99.90;;;;;;5045357;28;20051;-76
2022/12/21 13:20:04;;;;;;;4.47;1.50;;;12.00;99.90;;;;;;5051368;28;20147;-77
2022/12/21 13:22:34;;;;;;;4.82;1.30;;;12.00;99.90;;;;;;5051833;28;20024;-77
2022/12/21 13:25:16;;;;;;;2.72;1.60;;;12.00;99.90;;;;;;5050949;28;20048;-77
2022/12/21 13:27:45;;;;;;;1.70;0.93;;;11.90;99.90;;;;;;5052095;28;20036;-77
2022/12/21 13:30:22;;;;;;;3.80;1.10;;;11.90;99.90;;;;;;5033080;28;20045;-75
2022/12/21 13:32:55;;;;;;;2.35;1.67;;;11.80;99.90;;;;;;5030108;28;20029;-77